Time;durP1;ratioP1;P1;durP2;ratioP2;P2;SDS_P1;SDS_P2;PMS_P1;PMS_P2;Temp;Humidity;BMP_temperature;BMP_pressure;BME280_temperature;BME280_humidity;BME280_pressure;Samples;Min_cycle;Max_cycle;Signal;HPM_P1;HPM_P2
2021/09/25 00:00:34;;;;;;;7.55;4.32;;;16.00;99.90;;;;;;5012478;28;20030;-87
2021/09/25 00:03:02;;;;;;;6.78;3.65;;;16.00;99.90;;;;;;5008342;28;20574;-87
2021/09/25 00:05:30;;;;;;;6.32;3.65;;;16.00;99.90;;;;;;4998664;28;20088;-86
2021/09/25 00:07:56;;;;;;;5.85;3.60;;;16.00;99.90;;;;;;5009143;28;20032;-86
2021/09/25 00:10:23;;;;;;;5.65;3.88;;;16.10;99.90;;;;;;5011020;28;20532;-86
2021/09/25 00:12:50;;;;;;;6.20;3.80;;;16.10;99.90;;;;;;5011278;28;20126;-86
2021/09/25 00:15:16;;;;;;;6.05;3.67;;;16.10;99.90;;;;;;5012253;28;20089;-87
2021/09/25 00:17:42;;;;;;;7.60;4.28;;;16.10;99.90;;;;;;5011648;28;20042;-86
2021/09/25 00:20:09;;;;;;;7.13;5.18;;;16.10;99.90;;;;;;5008427;28;20037;-86
2021/09/25 00:22:35;;;;;;;7.95;5.32;;;16.20;99.90;;;;;;5010633;28;20026;-87
2021/09/25 00:25:01;;;;;;;6.95;4.60;;;16.20;99.90;;;;;;5012350;28;20516;-87
2021/09/25 00:27:27;;;;;;;8.50;5.00;;;16.20;99.90;;;;;;5011874;28;20049;-86
2021/09/25 00:29:53;;;;;;;8.32;5.47;;;16.30;99.90;;;;;;5012027;28;20030;-86
2021/09/25 00:32:18;;;;;;;8.48;5.25;;;16.30;99.90;;;;;;5011803;28;20501;-86
2021/09/25 00:34:44;;;;;;;9.13;5.47;;;16.30;99.90;;;;;;5011960;28;20057;-87
2021/09/25 00:37:10;;;;;;;9.10;5.70;;;16.30;99.90;;;;;;5013274;28;20022;-87
2021/09/25 00:39:35;;;;;;;8.82;5.25;;;16.30;99.90;;;;;;5012067;28;20553;-86
2021/09/25 00:42:01;;;;;;;7.40;4.82;;;16.40;99.90;;;;;;5011287;28;20425;-87
2021/09/25 00:44:26;;;;;;;10.80;5.90;;;16.40;99.90;;;;;;5005584;28;20038;-86
2021/09/25 00:46:52;;;;;;;7.85;5.00;;;16.40;99.90;;;;;;5011528;28;20405;-86
2021/09/25 00:49:21;;;;;;;8.93;5.50;;;16.40;99.90;;;;;;5012149;28;20200;-86
2021/09/25 00:51:47;;;;;;;11.38;6.07;;;16.50;99.90;;;;;;5011101;28;20030;-87
2021/09/25 00:54:14;;;;;;;9.52;5.50;;;16.50;99.90;;;;;;5011676;28;20084;-87
2021/09/25 00:56:43;;;;;;;11.45;5.72;;;16.40;99.90;;;;;;5012062;28;20018;-86
2021/09/25 00:59:08;;;;;;;10.38;5.90;;;16.40;99.90;;;;;;5010757;28;20030;-86
2021/09/25 01:01:34;;;;;;;12.70;5.38;;;16.40;99.90;;;;;;5012033;28;20029;-86
2021/09/25 01:04:00;;;;;;;7.65;4.78;;;16.40;99.90;;;;;;5010879;28;20037;-87
2021/09/25 01:06:25;;;;;;;10.18;5.20;;;16.50;99.90;;;;;;5010939;28;20037;-86
2021/09/25 01:08:51;;;;;;;8.05;5.13;;;16.40;99.90;;;;;;5012062;28;20083;-87
2021/09/25 01:11:16;;;;;;;9.43;5.95;;;16.50;99.90;;;;;;5009700;28;20680;-86
2021/09/25 01:13:42;;;;;;;10.40;5.13;;;16.40;99.90;;;;;;5011047;28;20036;-86
2021/09/25 01:16:07;;;;;;;10.27;5.40;;;16.50;99.90;;;;;;5011128;28;20049;-86
2021/09/25 01:18:33;;;;;;;12.73;5.75;;;16.40;99.90;;;;;;5012202;28;20036;-87
2021/09/25 01:21:07;;;;;;;9.80;5.57;;;16.40;99.90;;;;;;5006192;28;20035;-86
2021/09/25 01:23:33;;;;;;;10.65;5.80;;;16.40;99.90;;;;;;5009468;28;20132;-86
2021/09/25 01:25:59;;;;;;;10.60;5.65;;;16.40;99.90;;;;;;5012907;28;20021;-87
2021/09/25 01:28:26;;;;;;;10.85;5.53;;;16.40;99.90;;;;;;5007182;28;20030;-87
2021/09/25 01:30:51;;;;;;;11.23;5.20;;;16.40;99.90;;;;;;5007867;28;20022;-86
2021/09/25 01:33:27;;;;;;;11.07;5.70;;;16.40;99.90;;;;;;5020519;28;20049;-87
2021/09/25 01:35:53;;;;;;;10.35;5.43;;;16.40;99.90;;;;;;5011536;28;20026;-87
2021/09/25 01:38:18;;;;;;;7.93;5.38;;;16.40;99.90;;;;;;5008472;28;20026;-86
2021/09/25 01:40:44;;;;;;;9.85;5.80;;;16.30;99.90;;;;;;5011157;28;20030;-87
2021/09/25 01:43:10;;;;;;;10.05;5.65;;;16.40;99.90;;;;;;5011353;28;20053;-87
2021/09/25 01:45:35;;;;;;;9.88;5.43;;;16.40;99.90;;;;;;5028405;28;20072;-86
2021/09/25 01:48:01;;;;;;;10.80;5.35;;;16.40;99.90;;;;;;5007683;28;20057;-86
2021/09/25 01:50:26;;;;;;;9.45;5.22;;;16.40;99.90;;;;;;5019901;28;20120;-86
2021/09/25 01:52:52;;;;;;;9.52;5.22;;;16.40;99.90;;;;;;5014456;28;20018;-87
2021/09/25 01:55:17;;;;;;;10.00;5.72;;;16.30;99.90;;;;;;5013940;28;20021;-87
2021/09/25 01:57:43;;;;;;;11.07;6.45;;;16.30;99.90;;;;;;5014752;28;20041;-87
2021/09/25 02:00:09;;;;;;;8.55;5.22;;;16.40;99.90;;;;;;5014447;28;20029;-86
2021/09/25 02:02:37;;;;;;;10.85;6.43;;;16.30;99.90;;;;;;5015055;28;20029;-86
2021/09/25 02:05:04;;;;;;;12.13;5.90;;;16.30;99.90;;;;;;5013742;28;20088;-86
2021/09/25 02:07:29;;;;;;;10.40;6.30;;;16.30;99.90;;;;;;5014367;28;20022;-87
2021/09/25 02:09:55;;;;;;;12.90;6.32;;;16.30;99.90;;;;;;5013200;28;20084;-87
2021/09/25 02:12:20;;;;;;;9.38;6.10;;;16.30;99.90;;;;;;5014095;28;20053;-87
2021/09/25 02:14:46;;;;;;;10.27;6.15;;;16.30;99.90;;;;;;5009636;28;20022;-87
2021/09/25 02:17:12;;;;;;;10.52;5.88;;;16.30;99.90;;;;;;5011717;28;20061;-87
2021/09/25 02:19:38;;;;;;;13.02;6.03;;;16.30;99.90;;;;;;5015535;28;20025;-87
2021/09/25 02:22:03;;;;;;;11.98;6.50;;;16.30;99.90;;;;;;5015330;28;20030;-87
2021/09/25 02:24:29;;;;;;;11.65;7.07;;;16.30;99.90;;;;;;5013515;28;20034;-87
2021/09/25 02:26:56;;;;;;;13.75;6.03;;;16.30;99.90;;;;;;5013885;28;20401;-88
2021/09/25 02:29:22;;;;;;;10.13;6.78;;;16.30;99.90;;;;;;5014071;28;20084;-86
2021/09/25 02:31:47;;;;;;;10.90;6.35;;;16.30;99.90;;;;;;5014506;28;20529;-87
2021/09/25 02:34:12;;;;;;;10.57;6.53;;;16.20;99.90;;;;;;5013555;28;20053;-87
2021/09/25 02:36:38;;;;;;;12.50;6.65;;;16.20;99.90;;;;;;5013967;28;20036;-86
2021/09/25 02:39:04;;;;;;;13.13;6.35;;;16.20;99.90;;;;;;5014150;28;20048;-87
2021/09/25 02:41:29;;;;;;;13.75;6.55;;;16.20;99.90;;;;;;5014112;28;20026;-87
2021/09/25 02:43:55;;;;;;;12.35;6.88;;;16.20;99.90;;;;;;5013116;28;20026;-86
2021/09/25 02:46:20;;;;;;;13.18;6.88;;;16.20;99.90;;;;;;5014009;28;21702;-87
2021/09/25 02:48:46;;;;;;;11.82;7.22;;;16.20;99.90;;;;;;5012726;28;20152;-87
2021/09/25 02:51:13;;;;;;;13.02;7.50;;;16.10;99.90;;;;;;5014319;28;20497;-87
2021/09/25 02:53:38;;;;;;;10.85;6.65;;;16.20;99.90;;;;;;5013394;28;20014;-86
2021/09/25 02:56:04;;;;;;;13.85;7.13;;;16.10;99.90;;;;;;5013781;28;20076;-87
2021/09/25 02:58:29;;;;;;;12.32;7.45;;;16.10;99.90;;;;;;5013819;28;20021;-87
2021/09/25 03:00:55;;;;;;;12.07;6.95;;;16.10;99.90;;;;;;5013825;28;20474;-86
2021/09/25 03:03:20;;;;;;;13.65;7.57;;;16.10;99.90;;;;;;5012331;28;20033;-87
2021/09/25 03:05:46;;;;;;;9.77;6.00;;;16.10;99.90;;;;;;5014058;28;20030;-86
2021/09/25 03:08:12;;;;;;;18.23;8.57;;;16.10;99.90;;;;;;5009744;28;20383;-86
2021/09/25 03:10:37;;;;;;;13.13;6.40;;;16.00;99.90;;;;;;5013653;28;20033;-87
2021/09/25 03:13:03;;;;;;;13.45;7.40;;;16.00;99.90;;;;;;5012790;28;20041;-86
2021/09/25 03:15:28;;;;;;;12.07;7.30;;;16.00;99.90;;;;;;5014218;28;20556;-87
2021/09/25 03:17:54;;;;;;;12.00;6.78;;;16.00;99.90;;;;;;5013012;28;20121;-87
2021/09/25 03:20:19;;;;;;;12.95;7.43;;;16.00;99.90;;;;;;5013365;28;20501;-87
2021/09/25 03:22:45;;;;;;;11.30;6.53;;;16.00;99.90;;;;;;5014408;28;20018;-87
2021/09/25 03:25:10;;;;;;;13.35;7.10;;;16.00;99.90;;;;;;5013212;28;20053;-87
2021/09/25 03:27:37;;;;;;;12.40;7.63;;;16.00;99.90;;;;;;5013163;28;20018;-86
2021/09/25 03:30:06;;;;;;;10.57;6.63;;;16.00;99.90;;;;;;5004646;28;20046;-87
2021/09/25 03:32:32;;;;;;;10.45;6.57;;;16.00;99.90;;;;;;5008201;28;20137;-87
2021/09/25 03:34:57;;;;;;;13.10;6.68;;;16.00;99.90;;;;;;5013057;28;20101;-87
2021/09/25 03:37:23;;;;;;;13.00;7.32;;;16.00;99.90;;;;;;5013306;28;20034;-86
2021/09/25 03:39:48;;;;;;;14.45;7.30;;;16.00;99.90;;;;;;5012963;28;20437;-86
2021/09/25 03:42:14;;;;;;;15.18;7.35;;;16.00;99.90;;;;;;5012749;28;20029;-87
2021/09/25 03:44:40;;;;;;;12.50;6.72;;;16.00;99.90;;;;;;5000096;28;20038;-86
2021/09/25 03:47:05;;;;;;;11.05;6.88;;;15.90;99.90;;;;;;5003743;28;20026;-87
2021/09/25 03:49:31;;;;;;;15.63;7.25;;;16.00;99.90;;;;;;5012320;28;20029;-87
2021/09/25 03:51:56;;;;;;;11.75;7.15;;;15.90;99.90;;;;;;5012593;28;20500;-86
2021/09/25 03:54:22;;;;;;;10.95;6.82;;;15.90;99.90;;;;;;5012575;28;20551;-88
2021/09/25 03:56:47;;;;;;;10.43;7.03;;;16.00;99.90;;;;;;5009351;28;20391;-87
2021/09/25 03:59:13;;;;;;;10.00;6.53;;;16.00;99.90;;;;;;5005989;28;20398;-87
2021/09/25 04:01:38;;;;;;;12.85;7.40;;;16.00;99.90;;;;;;5012965;28;20065;-87
2021/09/25 04:04:04;;;;;;;11.02;5.78;;;15.90;99.90;;;;;;5008286;28;20394;-87
2021/09/25 04:06:29;;;;;;;8.27;5.85;;;15.90;99.90;;;;;;5011567;28;20553;-87
2021/09/25 04:08:55;;;;;;;11.55;6.53;;;15.90;99.90;;;;;;5010969;28;20117;-87
2021/09/25 04:11:21;;;;;;;11.10;6.00;;;15.90;99.90;;;;;;5010605;28;20026;-86
2021/09/25 04:13:47;;;;;;;12.20;5.80;;;15.90;99.90;;;;;;5011784;28;20121;-87
2021/09/25 04:16:12;;;;;;;12.02;5.88;;;15.90;99.90;;;;;;5011760;28;20117;-87
2021/09/25 04:18:38;;;;;;;10.07;6.38;;;15.90;99.90;;;;;;5024888;28;20054;-87
2021/09/25 04:21:03;;;;;;;11.90;6.07;;;15.90;99.90;;;;;;5006310;28;20022;-87
2021/09/25 04:23:29;;;;;;;8.40;5.43;;;15.90;99.90;;;;;;5012001;28;20061;-87
2021/09/25 04:25:55;;;;;;;9.13;5.50;;;15.90;99.90;;;;;;5011403;28;20029;-87
2021/09/25 04:28:20;;;;;;;10.30;6.18;;;15.90;99.90;;;;;;5008270;28;20076;-86
2021/09/25 04:30:46;;;;;;;12.05;6.00;;;15.90;99.90;;;;;;5002866;28;20030;-86
2021/09/25 04:33:12;;;;;;;8.88;5.47;;;15.90;99.90;;;;;;4998425;28;20497;-87
2021/09/25 04:35:38;;;;;;;10.07;5.47;;;15.90;99.90;;;;;;5021148;28;20401;-87
2021/09/25 04:38:05;;;;;;;12.25;6.68;;;15.90;99.90;;;;;;5011333;28;22311;-87
2021/09/25 04:40:31;;;;;;;8.70;5.40;;;15.90;99.90;;;;;;5012055;28;20034;-86
2021/09/25 04:42:58;;;;;;;8.85;5.88;;;15.90;99.90;;;;;;5008867;28;20096;-86
2021/09/25 04:45:24;;;;;;;9.43;5.90;;;15.90;99.90;;;;;;5009556;28;20038;-87
2021/09/25 04:47:50;;;;;;;10.85;5.93;;;15.90;99.90;;;;;;5012021;28;20026;-86
2021/09/25 04:50:18;;;;;;;9.80;6.45;;;15.90;99.90;;;;;;5011186;28;20444;-87
2021/09/25 04:52:43;;;;;;;9.27;5.05;;;15.90;99.90;;;;;;5011748;28;20053;-86
2021/09/25 04:55:10;;;;;;;12.02;6.15;;;15.80;99.90;;;;;;5011543;28;20041;-87
2021/09/25 04:57:35;;;;;;;10.68;5.47;;;15.90;99.90;;;;;;5011776;28;20453;-87
2021/09/25 05:00:01;;;;;;;11.30;6.22;;;15.90;99.90;;;;;;5011626;28;20140;-87
2021/09/25 05:02:27;;;;;;;9.85;5.45;;;15.80;99.90;;;;;;5011948;28;20159;-86
2021/09/25 05:04:52;;;;;;;7.47;5.68;;;15.90;99.90;;;;;;5011000;28;20129;-87
2021/09/25 05:07:19;;;;;;;8.75;5.50;;;15.90;99.90;;;;;;5011293;28;20033;-87
2021/09/25 05:09:45;;;;;;;8.50;5.07;;;15.80;99.90;;;;;;5009403;28;20041;-87
2021/09/25 05:12:10;;;;;;;8.00;4.93;;;15.90;99.90;;;;;;5010740;28;20022;-85
2021/09/25 05:14:36;;;;;;;12.10;5.85;;;15.90;99.90;;;;;;5008950;28;20033;-86
2021/09/25 05:17:03;;;;;;;9.00;5.40;;;15.90;99.90;;;;;;5008876;28;20026;-85
2021/09/25 05:19:28;;;;;;;9.43;5.55;;;15.90;99.90;;;;;;5010256;28;20198;-85
2021/09/25 05:21:54;;;;;;;9.88;5.57;;;15.80;99.90;;;;;;5001304;28;20023;-85
2021/09/25 05:24:20;;;;;;;11.35;5.80;;;15.90;99.90;;;;;;5007285;28;20462;-85
2021/09/25 05:26:49;;;;;;;12.63;6.35;;;15.80;99.90;;;;;;5014704;28;20025;-85
2021/09/25 05:29:16;;;;;;;9.48;6.00;;;15.80;99.90;;;;;;5015244;28;20117;-86
2021/09/25 05:31:42;;;;;;;8.75;5.97;;;15.80;99.90;;;;;;5014837;28;20065;-86
2021/09/25 05:34:08;;;;;;;9.88;5.63;;;15.90;99.90;;;;;;5014955;28;20640;-85
2021/09/25 05:36:33;;;;;;;10.07;5.82;;;15.90;99.90;;;;;;5014918;28;20026;-85
2021/09/25 05:38:59;;;;;;;9.52;6.28;;;15.90;99.90;;;;;;5015782;28;20030;-85
2021/09/25 05:41:24;;;;;;;9.98;5.53;;;15.90;99.90;;;;;;5001368;28;20031;-85
2021/09/25 05:43:53;;;;;;;9.88;6.10;;;15.90;99.90;;;;;;5014773;28;20045;-85
2021/09/25 05:46:19;;;;;;;11.43;6.65;;;15.80;99.90;;;;;;5014972;28;20408;-84
2021/09/25 05:48:45;;;;;;;11.15;6.28;;;15.90;99.90;;;;;;5013812;28;20140;-85
2021/09/25 05:51:12;;;;;;;9.52;5.95;;;15.90;99.90;;;;;;5016153;28;20021;-85
2021/09/25 05:53:38;;;;;;;11.80;6.25;;;15.90;99.90;;;;;;5018373;28;20026;-85
2021/09/25 05:56:04;;;;;;;10.68;6.25;;;16.00;99.90;;;;;;5019110;28;20053;-85
2021/09/25 05:58:29;;;;;;;12.82;6.45;;;16.00;99.90;;;;;;5016656;28;20068;-85
2021/09/25 06:00:55;;;;;;;13.32;6.47;;;16.00;99.90;;;;;;5012617;28;20022;-85
2021/09/25 06:03:20;;;;;;;10.20;5.75;;;16.00;99.90;;;;;;5015486;28;20094;-87
2021/09/25 06:05:46;;;;;;;11.40;6.03;;;16.00;99.90;;;;;;5015584;28;20061;-87
2021/09/25 06:08:12;;;;;;;11.25;5.75;;;16.00;99.90;;;;;;5013921;28;20065;-87
2021/09/25 06:10:38;;;;;;;9.68;6.25;;;16.00;99.90;;;;;;5014455;28;20049;-87
2021/09/25 06:13:06;;;;;;;13.57;6.53;;;16.10;99.90;;;;;;5012472;28;20431;-85
2021/09/25 06:15:32;;;;;;;11.52;6.93;;;16.10;99.90;;;;;;5014750;28;20030;-86
2021/09/25 06:17:59;;;;;;;10.95;6.28;;;16.10;99.90;;;;;;5013137;28;20030;-86
2021/09/25 06:20:24;;;;;;;10.85;6.30;;;16.20;99.90;;;;;;5014830;28;20401;-87
2021/09/25 06:22:50;;;;;;;10.70;6.00;;;16.20;99.90;;;;;;5013482;28;20033;-86
2021/09/25 06:25:15;;;;;;;11.07;6.13;;;16.20;99.90;;;;;;5016807;28;20030;-86
2021/09/25 06:27:41;;;;;;;12.48;6.20;;;16.20;99.90;;;;;;5030389;28;20030;-86
2021/09/25 06:30:07;;;;;;;10.98;6.50;;;16.30;99.90;;;;;;5009989;28;20053;-85
2021/09/25 06:32:33;;;;;;;9.93;6.03;;;16.30;99.90;;;;;;5013966;28;20103;-86
2021/09/25 06:34:58;;;;;;;9.15;6.60;;;16.30;99.90;;;;;;5016249;28;20410;-86
2021/09/25 06:37:25;;;;;;;12.75;6.47;;;16.40;99.90;;;;;;5014395;28;20018;-87
2021/09/25 06:39:51;;;;;;;14.55;6.68;;;16.40;99.90;;;;;;5010259;28;20029;-86
2021/09/25 06:42:16;;;;;;;13.60;6.60;;;16.40;99.90;;;;;;5012407;28;20025;-87
2021/09/25 06:44:42;;;;;;;17.23;7.22;;;16.50;99.90;;;;;;5006173;28;20486;-87
2021/09/25 06:47:07;;;;;;;10.57;6.60;;;16.50;99.90;;;;;;5015881;28;20025;-86
2021/09/25 06:49:33;;;;;;;11.48;6.75;;;16.50;99.90;;;;;;5016361;28;20486;-87
2021/09/25 06:51:59;;;;;;;10.82;6.85;;;16.60;99.90;;;;;;5014402;28;20041;-86
2021/09/25 06:54:24;;;;;;;11.20;6.97;;;16.60;99.90;;;;;;5013339;28;20493;-86
2021/09/25 06:56:50;;;;;;;11.45;7.05;;;16.60;99.90;;;;;;5012135;28;20026;-86
2021/09/25 06:59:15;;;;;;;11.95;7.57;;;16.60;99.90;;;;;;5006800;28;20037;-87
2021/09/25 07:01:41;;;;;;;10.10;6.38;;;16.60;99.90;;;;;;5008043;28;20064;-88
2021/09/25 07:04:06;;;;;;;10.23;7.07;;;16.60;99.90;;;;;;5012817;28;20476;-86
2021/09/25 07:06:34;;;;;;;11.35;6.97;;;16.70;99.90;;;;;;5013832;28;20485;-87
2021/09/25 07:08:59;;;;;;;11.88;6.65;;;16.70;99.90;;;;;;5010251;28;20030;-86
2021/09/25 07:11:25;;;;;;;10.15;6.47;;;16.80;99.90;;;;;;5013211;28;20030;-87
2021/09/25 07:13:50;;;;;;;13.90;6.93;;;16.80;99.90;;;;;;5006568;28;20030;-87
2021/09/25 07:16:16;;;;;;;10.23;6.88;;;16.80;99.90;;;;;;5010297;28;20026;-87
2021/09/25 07:18:41;;;;;;;13.93;8.15;;;16.90;99.90;;;;;;5009582;28;20025;-87
2021/09/25 07:21:07;;;;;;;11.10;6.60;;;16.90;99.90;;;;;;5012874;28;20032;-87
2021/09/25 07:23:35;;;;;;;12.75;6.60;;;17.00;99.90;;;;;;5013217;28;20084;-86
2021/09/25 07:26:06;;;;;;;12.15;6.88;;;17.00;99.90;;;;;;5016253;28;20134;-87
2021/09/25 07:28:33;;;;;;;12.98;8.00;;;17.10;99.90;;;;;;5013561;28;20037;-86
2021/09/25 07:31:00;;;;;;;11.48;6.72;;;17.00;99.90;;;;;;5010917;28;20485;-86
2021/09/25 07:33:26;;;;;;;11.82;7.18;;;17.10;99.90;;;;;;5012889;28;20136;-86
2021/09/25 07:35:51;;;;;;;13.20;6.88;;;17.10;99.90;;;;;;5012621;28;20116;-87
2021/09/25 07:38:17;;;;;;;10.63;7.55;;;17.10;99.90;;;;;;5012585;28;20038;-88
2021/09/25 07:40:43;;;;;;;12.95;7.45;;;17.10;99.90;;;;;;5014257;28;20029;-87
2021/09/25 07:43:08;;;;;;;11.95;7.93;;;17.10;99.90;;;;;;5014023;28;20482;-87
2021/09/25 07:45:34;;;;;;;12.30;7.97;;;17.10;99.90;;;;;;5008053;28;20030;-92
2021/09/25 07:48:01;;;;;;;11.85;7.80;;;17.20;99.90;;;;;;5013333;28;20022;-84
2021/09/25 07:50:27;;;;;;;13.25;8.30;;;17.20;99.90;;;;;;5011104;28;20388;-84
2021/09/25 07:52:55;;;;;;;13.27;7.78;;;17.20;99.90;;;;;;5012051;28;20029;-85
2021/09/25 07:55:23;;;;;;;14.52;8.05;;;17.20;99.90;;;;;;5013558;28;20032;-86
2021/09/25 07:57:48;;;;;;;12.30;8.30;;;17.20;99.90;;;;;;5000310;28;20034;-85
2021/09/25 08:00:15;;;;;;;13.77;7.55;;;17.20;99.90;;;;;;5010772;28;20032;-85
2021/09/25 08:02:41;;;;;;;12.68;7.80;;;17.20;99.90;;;;;;5011360;28;20030;-87
2021/09/25 08:05:08;;;;;;;12.90;8.40;;;17.30;99.90;;;;;;5012819;28;20072;-86
2021/09/25 08:07:33;;;;;;;15.05;8.85;;;17.30;99.90;;;;;;5025308;28;20026;-86
2021/09/25 08:09:59;;;;;;;11.75;7.68;;;17.40;99.90;;;;;;5012465;28;20031;-86
2021/09/25 08:12:25;;;;;;;13.50;8.48;;;17.40;99.90;;;;;;5013108;28;20021;-86
2021/09/25 08:14:51;;;;;;;12.93;8.63;;;17.40;99.90;;;;;;5011118;28;20232;-86
2021/09/25 08:17:17;;;;;;;15.98;8.57;;;17.40;99.90;;;;;;5010383;28;20151;-86
2021/09/25 08:19:43;;;;;;;12.25;8.13;;;17.40;99.90;;;;;;5028859;28;20029;-86
2021/09/25 08:22:08;;;;;;;14.73;8.65;;;17.40;99.90;;;;;;5011910;28;20030;-86
2021/09/25 08:24:34;;;;;;;16.30;9.57;;;17.50;99.90;;;;;;5009922;28;20064;-86
2021/09/25 08:26:59;;;;;;;14.43;8.85;;;17.50;99.90;;;;;;5011478;28;20033;-86
2021/09/25 08:29:25;;;;;;;13.38;9.10;;;17.60;99.90;;;;;;5008261;28;20025;-87
2021/09/25 08:31:50;;;;;;;14.05;8.98;;;17.60;99.90;;;;;;5022047;28;20088;-86
2021/09/25 08:34:18;;;;;;;13.77;9.00;;;17.70;99.90;;;;;;5011868;28;20060;-85
2021/09/25 08:36:44;;;;;;;13.57;9.48;;;17.70;99.90;;;;;;5011390;28;20018;-86
2021/09/25 08:39:10;;;;;;;17.42;9.77;;;17.70;99.90;;;;;;5006635;28;20039;-87
2021/09/25 08:41:36;;;;;;;17.00;10.55;;;17.70;99.90;;;;;;5009283;28;20025;-87
2021/09/25 08:44:02;;;;;;;15.18;10.52;;;17.70;99.90;;;;;;5011308;28;20034;-86
2021/09/25 08:46:27;;;;;;;18.73;11.10;;;17.70;99.90;;;;;;5013616;28;20113;-86
2021/09/25 08:48:54;;;;;;;15.30;9.55;;;17.80;99.90;;;;;;5015247;28;20064;-86
2021/09/25 08:51:19;;;;;;;14.93;9.25;;;17.80;99.90;;;;;;5012425;28;20122;-86
2021/09/25 08:53:45;;;;;;;17.15;10.45;;;17.90;99.90;;;;;;5011369;28;20113;-87
2021/09/25 08:56:12;;;;;;;17.95;10.68;;;17.90;99.90;;;;;;5011030;28;20596;-86
2021/09/25 08:58:38;;;;;;;17.60;11.00;;;18.00;99.90;;;;;;5010623;28;20022;-86
2021/09/25 09:01:04;;;;;;;15.00;9.55;;;18.00;99.90;;;;;;5006881;28;20044;-87
2021/09/25 09:03:35;;;;;;;19.40;11.52;;;18.00;99.90;;;;;;5012411;28;20103;-85
2021/09/25 09:06:30;;;;;;;19.38;11.38;;;18.10;99.90;;;;;;5023512;28;20046;-87
2021/09/25 09:09:00;;;;;;;16.80;10.30;;;18.10;99.90;;;;;;5012623;28;20045;-87
2021/09/25 09:11:26;;;;;;;17.35;11.10;;;18.20;99.90;;;;;;5000837;28;20437;-86
2021/09/25 09:13:55;;;;;;;21.40;12.20;;;18.20;99.80;;;;;;5008003;28;20030;-86
2021/09/25 09:16:21;;;;;;;18.52;10.32;;;18.30;99.70;;;;;;5012088;28;21920;-86
2021/09/25 09:18:49;;;;;;;18.55;10.77;;;18.40;99.60;;;;;;5012913;28;20045;-87
2021/09/25 09:21:18;;;;;;;18.13;10.70;;;18.40;99.50;;;;;;5010613;28;20482;-87
2021/09/25 09:23:50;;;;;;;17.33;10.18;;;18.50;99.50;;;;;;5027777;28;20160;-87
2021/09/25 09:26:25;;;;;;;17.55;9.82;;;18.60;99.30;;;;;;5012351;28;20429;-87
2021/09/25 09:28:53;;;;;;;20.10;11.82;;;18.60;99.10;;;;;;5002137;28;20034;-87
2021/09/25 09:31:19;;;;;;;17.13;10.48;;;18.70;99.10;;;;;;5028183;28;20061;-85
2021/09/25 09:34:06;;;;;;;19.63;10.82;;;18.70;99.10;;;;;;5004723;28;20057;-86
2021/09/25 09:36:35;;;;;;;20.23;11.82;;;18.70;98.90;;;;;;5009350;28;20062;-86
2021/09/25 09:39:21;;;;;;;22.38;11.55;;;18.70;98.80;;;;;;5011884;28;20049;-87
2021/09/25 09:41:51;;;;;;;18.20;10.68;;;18.80;98.70;;;;;;5028689;28;20030;-86
2021/09/25 09:44:32;;;;;;;16.77;11.05;;;18.90;98.60;;;;;;5013592;28;20045;-87
2021/09/25 09:47:04;;;;;;;18.17;10.88;;;19.00;98.50;;;;;;5017131;28;20032;-86
2021/09/25 09:49:40;;;;;;;18.15;11.18;;;19.00;98.30;;;;;;5002413;28;20046;-87
2021/09/25 09:52:11;;;;;;;16.48;10.95;;;19.10;98.20;;;;;;5025222;28;20104;-87
2021/09/25 09:54:39;;;;;;;14.63;11.10;;;19.10;98.20;;;;;;5012029;28;20356;-86
2021/09/25 09:57:10;;;;;;;16.23;11.05;;;19.10;98.20;;;;;;5008969;28;20030;-85
2021/09/25 09:59:37;;;;;;;24.75;11.98;;;19.20;98.10;;;;;;5009558;28;20030;-87
2021/09/25 10:02:04;;;;;;;22.35;12.15;;;19.20;98.00;;;;;;5009094;28;20068;-87
2021/09/25 10:04:30;;;;;;;18.27;11.00;;;19.20;98.00;;;;;;5010219;28;20077;-87
2021/09/25 10:06:56;;;;;;;19.60;11.45;;;19.30;97.70;;;;;;5008824;28;20057;-87
2021/09/25 10:09:26;;;;;;;18.73;11.60;;;19.30;97.70;;;;;;5012275;28;20089;-87
2021/09/25 10:11:54;;;;;;;17.38;10.65;;;19.30;97.70;;;;;;5006165;28;20030;-86
2021/09/25 10:14:23;;;;;;;19.38;12.50;;;19.40;97.50;;;;;;5022196;28;20064;-87
2021/09/25 10:16:50;;;;;;;21.77;12.60;;;19.40;97.50;;;;;;5011605;28;20354;-86
2021/09/25 10:19:18;;;;;;;19.63;11.82;;;19.40;97.50;;;;;;5014751;28;20029;-86
2021/09/25 10:21:47;;;;;;;17.17;11.20;;;19.50;97.50;;;;;;5014583;28;20505;-86
2021/09/25 10:24:24;;;;;;;17.65;11.63;;;19.40;97.40;;;;;;5014603;28;20148;-86
2021/09/25 10:26:50;;;;;;;21.60;11.93;;;19.50;97.40;;;;;;5014086;28;20030;-86
2021/09/25 10:29:23;;;;;;;18.70;11.50;;;19.60;97.30;;;;;;5023166;28;20033;-87
2021/09/25 10:31:49;;;;;;;18.55;12.43;;;19.70;97.20;;;;;;5013422;28;20033;-87
2021/09/25 10:34:27;;;;;;;19.73;11.57;;;19.80;97.10;;;;;;5013945;28;20080;-86
2021/09/25 10:36:58;;;;;;;17.70;12.57;;;19.90;96.90;;;;;;5029258;28;20033;-87
2021/09/25 10:39:36;;;;;;;20.73;12.60;;;19.90;96.70;;;;;;5012706;28;20029;-89
2021/09/25 10:42:15;;;;;;;17.23;12.15;;;19.90;96.60;;;;;;5000950;28;20034;-86
2021/09/25 10:44:46;;;;;;;18.75;11.02;;;20.00;96.60;;;;;;5012139;28;20374;-86
2021/09/25 10:47:20;;;;;;;22.40;12.80;;;20.00;96.70;;;;;;5012204;28;20025;-86
2021/09/25 10:49:53;;;;;;;21.67;12.52;;;20.10;96.50;;;;;;5010672;28;20037;-86
2021/09/25 10:52:39;;;;;;;23.67;13.02;;;20.10;96.50;;;;;;5016873;28;20065;-86
2021/09/25 10:55:23;;;;;;;18.10;11.75;;;20.10;96.30;;;;;;5016196;28;20108;-87
2021/09/25 10:58:15;;;;;;;22.23;13.35;;;20.10;96.30;;;;;;4999542;28;20236;-86
2021/09/25 11:01:01;;;;;;;20.15;12.13;;;20.20;96.20;;;;;;5013258;28;20125;-87
2021/09/25 11:03:51;;;;;;;20.80;13.18;;;20.20;96.20;;;;;;5015967;28;20057;-87
2021/09/25 11:06:19;;;;;;;18.92;11.68;;;20.40;96.10;;;;;;5013739;28;20030;-87
2021/09/25 11:08:59;;;;;;;20.15;11.55;;;20.50;96.00;;;;;;5009950;28;20033;-85
2021/09/25 11:11:49;;;;;;;19.38;11.90;;;20.60;95.80;;;;;;5014805;28;20030;-86
2021/09/25 11:14:47;;;;;;;18.23;11.45;;;20.70;95.40;;;;;;5015549;28;20042;-87
2021/09/25 11:17:19;;;;;;;16.33;11.93;;;20.80;95.40;;;;;;5020496;28;20486;-87
2021/09/25 11:20:03;;;;;;;17.52;11.80;;;20.90;95.30;;;;;;5014856;28;20470;-85
2021/09/25 11:22:34;;;;;;;18.77;11.90;;;20.90;95.20;;;;;;5006959;28;20038;-86
2021/09/25 11:25:11;;;;;;;18.90;13.02;;;20.90;95.00;;;;;;5009741;28;20048;-86
2021/09/25 11:27:45;;;;;;;19.05;12.02;;;20.90;94.90;;;;;;5007900;28;20433;-86
2021/09/25 11:30:16;;;;;;;16.58;11.85;;;21.00;95.00;;;;;;5014975;28;20022;-86
2021/09/25 11:32:44;;;;;;;16.13;11.40;;;21.10;94.90;;;;;;5015021;28;20076;-85
2021/09/25 11:35:18;;;;;;;18.33;12.30;;;21.10;94.70;;;;;;5014688;28;20124;-85
2021/09/25 11:37:52;;;;;;;15.63;11.70;;;21.10;94.50;;;;;;5024551;28;20023;-86
2021/09/25 11:40:19;;;;;;;15.75;12.07;;;21.20;94.90;;;;;;5014450;28;20481;-87
2021/09/25 11:42:45;;;;;;;16.85;10.90;;;21.20;94.30;;;;;;5014760;28;20470;-87
2021/09/25 11:45:12;;;;;;;16.65;11.05;;;21.30;94.30;;;;;;5013381;28;20045;-87
2021/09/25 11:47:44;;;;;;;17.35;11.52;;;21.40;94.10;;;;;;5013220;28;20046;-87
2021/09/25 11:50:25;;;;;;;16.48;10.13;;;21.50;93.90;;;;;;5029245;28;20461;-86
2021/09/25 11:53:18;;;;;;;18.50;11.00;;;21.60;93.60;;;;;;4995770;28;20034;-87
2021/09/25 11:55:45;;;;;;;18.17;10.38;;;21.50;93.60;;;;;;4995332;28;20034;-86
2021/09/25 11:58:13;;;;;;;15.25;10.05;;;21.50;93.50;;;;;;5017994;28;20076;-87
2021/09/25 12:00:45;;;;;;;16.75;10.68;;;21.50;93.50;;;;;;5021881;28;20113;-87
2021/09/25 12:03:12;;;;;;;16.38;10.52;;;21.50;93.30;;;;;;5009824;28;20084;-87
2021/09/25 12:05:46;;;;;;;16.45;9.93;;;21.50;93.30;;;;;;5012667;28;20038;-87
2021/09/25 12:08:18;;;;;;;15.75;9.75;;;21.70;93.20;;;;;;5008702;28;20393;-87
2021/09/25 12:10:55;;;;;;;15.88;9.93;;;21.80;93.00;;;;;;5006715;28;20025;-86
2021/09/25 12:13:26;;;;;;;14.57;10.10;;;21.90;92.70;;;;;;5014109;28;20034;-86
2021/09/25 12:15:55;;;;;;;15.90;9.13;;;21.80;92.60;;;;;;5013164;28;20113;-87
2021/09/25 12:18:21;;;;;;;18.75;10.43;;;21.80;92.60;;;;;;5011456;28;20030;-87
2021/09/25 12:20:58;;;;;;;15.15;9.98;;;21.70;92.70;;;;;;5013317;28;20398;-87
2021/09/25 12:23:34;;;;;;;12.45;8.77;;;21.60;92.60;;;;;;5013903;28;20029;-88
2021/09/25 12:26:02;;;;;;;16.42;10.77;;;21.60;92.70;;;;;;5013843;28;20026;-87
2021/09/25 12:28:32;;;;;;;14.10;10.40;;;21.50;92.60;;;;;;5013886;28;20041;-88
2021/09/25 12:31:07;;;;;;;14.18;9.93;;;21.50;92.70;;;;;;5026486;28;20026;-87
2021/09/25 12:33:37;;;;;;;12.88;8.68;;;21.50;92.80;;;;;;5025943;28;20054;-88
2021/09/25 12:36:06;;;;;;;14.25;8.50;;;21.50;92.60;;;;;;5011163;28;20061;-86
2021/09/25 12:38:37;;;;;;;13.65;8.88;;;21.50;92.50;;;;;;5011138;28;20103;-86